sensor_id;sensor_type;location;lat;lon;timestamp;temperature;humidity
6407;DHT22;3236;51.022;6.818;2022-11-11T00:00:42;8.40;99.90
6407;DHT22;3236;51.022;6.818;2022-11-11T00:03:10;8.50;99.90
6407;DHT22;3236;51.022;6.818;2022-11-11T00:08:04;8.60;99.90
6407;DHT22;3236;51.022;6.818;2022-11-11T00:10:34;8.00;99.90
6407;DHT22;3236;51.022;6.818;2022-11-11T00:13:04;8.10;99.90
6407;DHT22;3236;51.022;6.818;2022-11-11T00:15:36;8.10;99.90
6407;DHT22;3236;51.022;6.818;2022-11-11T00:18:03;8.10;99.90
6407;DHT22;3236;51.022;6.818;2022-11-11T00:23:43;8.20;99.90
6407;DHT22;3236;51.022;6.818;2022-11-11T00:26:28;8.00;99.90
6407;DHT22;3236;51.022;6.818;2022-11-11T00:33:54;7.60;99.90
6407;DHT22;3236;51.022;6.818;2022-11-11T00:38:49;7.20;99.90
6407;DHT22;3236;51.022;6.818;2022-11-11T00:41:21;7.30;99.90
6407;DHT22;3236;51.022;6.818;2022-11-11T00:49:02;7.00;99.90
6407;DHT22;3236;51.022;6.818;2022-11-11T00:56:46;7.90;99.90
6407;DHT22;3236;51.022;6.818;2022-11-11T00:59:13;7.10;99.90
6407;DHT22;3236;51.022;6.818;2022-11-11T01:01:43;7.20;99.90
6407;DHT22;3236;51.022;6.818;2022-11-11T01:04:10;7.50;99.90
6407;DHT22;3236;51.022;6.818;2022-11-11T01:06:37;7.20;99.90
6407;DHT22;3236;51.022;6.818;2022-11-11T01:09:06;7.70;99.90
6407;DHT22;3236;51.022;6.818;2022-11-11T01:11:34;7.50;99.90
6407;DHT22;3236;51.022;6.818;2022-11-11T01:14:01;7.30;99.90
6407;DHT22;3236;51.022;6.818;2022-11-11T01:16:28;7.10;99.90
6407;DHT22;3236;51.022;6.818;2022-11-11T01:18:55;7.60;99.90
6407;DHT22;3236;51.022;6.818;2022-11-11T01:21:24;6.80;99.90
6407;DHT22;3236;51.022;6.818;2022-11-11T01:23:52;7.40;99.90
6407;DHT22;3236;51.022;6.818;2022-11-11T01:26:23;7.20;99.90
6407;DHT22;3236;51.022;6.818;2022-11-11T01:28:51;7.20;99.90
6407;DHT22;3236;51.022;6.818;2022-11-11T01:31:23;7.40;99.90
6407;DHT22;3236;51.022;6.818;2022-11-11T01:33:54;7.10;99.90
6407;DHT22;3236;51.022;6.818;2022-11-11T01:36:23;6.80;99.90
6407;DHT22;3236;51.022;6.818;2022-11-11T01:38:56;7.10;99.90
6407;DHT22;3236;51.022;6.818;2022-11-11T01:41:26;6.50;99.90
6407;DHT22;3236;51.022;6.818;2022-11-11T01:44:18;7.20;99.90
6407;DHT22;3236;51.022;6.818;2022-11-11T01:46:48;6.80;99.90
6407;DHT22;3236;51.022;6.818;2022-11-11T01:49:22;6.60;99.90
6407;DHT22;3236;51.022;6.818;2022-11-11T01:54:25;6.80;99.90
6407;DHT22;3236;51.022;6.818;2022-11-11T01:57:00;7.10;99.90
6407;DHT22;3236;51.022;6.818;2022-11-11T01:59:32;6.70;99.90
6407;DHT22;3236;51.022;6.818;2022-11-11T02:02:04;7.10;99.90
6407;DHT22;3236;51.022;6.818;2022-11-11T02:04:34;6.70;99.90
6407;DHT22;3236;51.022;6.818;2022-11-11T02:09:50;7.10;99.90
6407;DHT22;3236;51.022;6.818;2022-11-11T02:12:19;6.90;99.90
6407;DHT22;3236;51.022;6.818;2022-11-11T02:15:05;6.80;99.90
6407;DHT22;3236;51.022;6.818;2022-11-11T02:17:33;7.20;99.90
6407;DHT22;3236;51.022;6.818;2022-11-11T02:20:01;6.90;99.90
6407;DHT22;3236;51.022;6.818;2022-11-11T02:22:35;7.10;99.90
6407;DHT22;3236;51.022;6.818;2022-11-11T02:25:09;7.00;99.90
6407;DHT22;3236;51.022;6.818;2022-11-11T02:27:40;6.80;99.90
6407;DHT22;3236;51.022;6.818;2022-11-11T02:30:09;6.70;99.90
6407;DHT22;3236;51.022;6.818;2022-11-11T02:32:41;6.30;99.90
6407;DHT22;3236;51.022;6.818;2022-11-11T02:35:14;7.00;99.90
6407;DHT22;3236;51.022;6.818;2022-11-11T02:37:43;6.30;99.90
6407;DHT22;3236;51.022;6.818;2022-11-11T02:40:17;6.90;99.90
6407;DHT22;3236;51.022;6.818;2022-11-11T02:42:44;6.60;99.90
6407;DHT22;3236;51.022;6.818;2022-11-11T02:45:14;6.70;99.90
6407;DHT22;3236;51.022;6.818;2022-11-11T02:47:41;6.50;99.90
6407;DHT22;3236;51.022;6.818;2022-11-11T02:50:08;6.40;99.90
6407;DHT22;3236;51.022;6.818;2022-11-11T02:52:36;6.60;99.90
6407;DHT22;3236;51.022;6.818;2022-11-11T02:55:03;6.20;99.90
6407;DHT22;3236;51.022;6.818;2022-11-11T02:57:32;6.50;99.90
6407;DHT22;3236;51.022;6.818;2022-11-11T03:00:00;6.50;99.90
6407;DHT22;3236;51.022;6.818;2022-11-11T03:02:27;6.20;99.90
6407;DHT22;3236;51.022;6.818;2022-11-11T03:04:55;6.60;99.90
6407;DHT22;3236;51.022;6.818;2022-11-11T03:07:24;6.70;99.90
6407;DHT22;3236;51.022;6.818;2022-11-11T03:09:51;6.80;99.90
6407;DHT22;3236;51.022;6.818;2022-11-11T03:12:18;6.40;99.90
6407;DHT22;3236;51.022;6.818;2022-11-11T03:14:47;6.90;99.90
6407;DHT22;3236;51.022;6.818;2022-11-11T03:17:14;6.70;99.90
6407;DHT22;3236;51.022;6.818;2022-11-11T03:19:59;6.70;99.90
6407;DHT22;3236;51.022;6.818;2022-11-11T03:22:39;6.90;99.90
6407;DHT22;3236;51.022;6.818;2022-11-11T03:25:07;6.60;99.90
6407;DHT22;3236;51.022;6.818;2022-11-11T03:32:48;6.90;99.90
6407;DHT22;3236;51.022;6.818;2022-11-11T03:35:16;7.10;99.90
6407;DHT22;3236;51.022;6.818;2022-11-11T03:37:43;7.00;99.90
6407;DHT22;3236;51.022;6.818;2022-11-11T03:40:27;6.70;99.90
6407;DHT22;3236;51.022;6.818;2022-11-11T03:42:54;6.80;99.90
6407;DHT22;3236;51.022;6.818;2022-11-11T03:45:26;6.30;99.90
6407;DHT22;3236;51.022;6.818;2022-11-11T03:47:56;6.60;99.90
6407;DHT22;3236;51.022;6.818;2022-11-11T03:50:23;6.60;99.90
6407;DHT22;3236;51.022;6.818;2022-11-11T03:55:18;6.50;99.90
6407;DHT22;3236;51.022;6.818;2022-11-11T03:57:46;6.50;99.90
6407;DHT22;3236;51.022;6.818;2022-11-11T04:00:15;6.80;99.90
6407;DHT22;3236;51.022;6.818;2022-11-11T04:02:44;6.50;99.90
6407;DHT22;3236;51.022;6.818;2022-11-11T04:05:28;6.40;99.90
6407;DHT22;3236;51.022;6.818;2022-11-11T04:08:17;6.30;99.90
6407;DHT22;3236;51.022;6.818;2022-11-11T04:11:05;6.10;99.90
6407;DHT22;3236;51.022;6.818;2022-11-11T04:13:33;6.30;99.90
6407;DHT22;3236;51.022;6.818;2022-11-11T04:16:18;6.30;99.90
6407;DHT22;3236;51.022;6.818;2022-11-11T04:18:47;6.30;99.90
6407;DHT22;3236;51.022;6.818;2022-11-11T04:21:31;7.00;99.90
6407;DHT22;3236;51.022;6.818;2022-11-11T04:24:12;6.70;99.90
6407;DHT22;3236;51.022;6.818;2022-11-11T04:26:58;6.70;99.90
6407;DHT22;3236;51.022;6.818;2022-11-11T04:29:26;7.20;99.90
6407;DHT22;3236;51.022;6.818;2022-11-11T04:31:57;6.80;99.90
6407;DHT22;3236;51.022;6.818;2022-11-11T04:34:47;6.70;99.90
6407;DHT22;3236;51.022;6.818;2022-11-11T04:37:16;6.50;99.90
6407;DHT22;3236;51.022;6.818;2022-11-11T04:39:43;6.50;99.90
6407;DHT22;3236;51.022;6.818;2022-11-11T04:42:29;6.60;99.90
6407;DHT22;3236;51.022;6.818;2022-11-11T04:44:57;6.60;99.90
6407;DHT22;3236;51.022;6.818;2022-11-11T04:47:55;6.70;99.90
6407;DHT22;3236;51.022;6.818;2022-11-11T04:50:26;6.60;99.90
6407;DHT22;3236;51.022;6.818;2022-11-11T04:52:54;6.70;99.90
6407;DHT22;3236;51.022;6.818;2022-11-11T04:55:24;6.30;99.90
6407;DHT22;3236;51.022;6.818;2022-11-11T04:58:10;6.70;99.90
6407;DHT22;3236;51.022;6.818;2022-11-11T05:03:05;6.40;99.90
6407;DHT22;3236;51.022;6.818;2022-11-11T05:05:47;6.60;99.90
6407;DHT22;3236;51.022;6.818;2022-11-11T05:08:32;6.90;99.90
6407;DHT22;3236;51.022;6.818;2022-11-11T05:11:29;6.80;99.90
6407;DHT22;3236;51.022;6.818;2022-11-11T05:13:58;6.90;99.90
6407;DHT22;3236;51.022;6.818;2022-11-11T05:16:44;6.80;99.90
6407;DHT22;3236;51.022;6.818;2022-11-11T05:19:29;6.60;99.90
6407;DHT22;3236;51.022;6.818;2022-11-11T05:22:18;7.00;99.90
6407;DHT22;3236;51.022;6.818;2022-11-11T05:24:47;6.80;99.90
6407;DHT22;3236;51.022;6.818;2022-11-11T05:27:31;6.70;99.90
6407;DHT22;3236;51.022;6.818;2022-11-11T05:29:59;6.80;99.90
6407;DHT22;3236;51.022;6.818;2022-11-11T05:32:26;6.70;99.90
6407;DHT22;3236;51.022;6.818;2022-11-11T05:34:53;6.70;99.90
6407;DHT22;3236;51.022;6.818;2022-11-11T05:37:22;6.50;99.90
6407;DHT22;3236;51.022;6.818;2022-11-11T05:39:49;6.70;99.90
6407;DHT22;3236;51.022;6.818;2022-11-11T05:42:16;6.50;99.90
6407;DHT22;3236;51.022;6.818;2022-11-11T05:44:43;7.10;99.90
6407;DHT22;3236;51.022;6.818;2022-11-11T05:47:10;6.70;99.90
6407;DHT22;3236;51.022;6.818;2022-11-11T05:49:38;6.80;99.90
6407;DHT22;3236;51.022;6.818;2022-11-11T05:52:06;6.70;99.90
6407;DHT22;3236;51.022;6.818;2022-11-11T05:54:34;7.10;99.90
6407;DHT22;3236;51.022;6.818;2022-11-11T05:57:01;6.70;99.90
6407;DHT22;3236;51.022;6.818;2022-11-11T05:59:29;7.10;99.90
6407;DHT22;3236;51.022;6.818;2022-11-11T06:01:56;7.20;99.90
6407;DHT22;3236;51.022;6.818;2022-11-11T06:04:25;6.90;99.90
6407;DHT22;3236;51.022;6.818;2022-11-11T06:06:52;6.40;99.90
6407;DHT22;3236;51.022;6.818;2022-11-11T06:09:19;6.90;99.90
6407;DHT22;3236;51.022;6.818;2022-11-11T06:11:47;6.70;99.90
6407;DHT22;3236;51.022;6.818;2022-11-11T06:14:14;6.30;99.90
6407;DHT22;3236;51.022;6.818;2022-11-11T06:16:42;6.40;99.90
6407;DHT22;3236;51.022;6.818;2022-11-11T06:19:09;6.60;99.90
6407;DHT22;3236;51.022;6.818;2022-11-11T06:21:36;6.00;99.90
6407;DHT22;3236;51.022;6.818;2022-11-11T06:26:45;6.50;99.90
6407;DHT22;3236;51.022;6.818;2022-11-11T06:29:12;6.40;99.90
6407;DHT22;3236;51.022;6.818;2022-11-11T06:31:44;6.00;99.90
6407;DHT22;3236;51.022;6.818;2022-11-11T06:34:11;6.40;99.90
6407;DHT22;3236;51.022;6.818;2022-11-11T06:39:06;6.00;99.90
6407;DHT22;3236;51.022;6.818;2022-11-11T06:41:33;6.30;99.90
6407;DHT22;3236;51.022;6.818;2022-11-11T06:44:00;6.30;99.90
6407;DHT22;3236;51.022;6.818;2022-11-11T06:48:57;6.50;99.90
6407;DHT22;3236;51.022;6.818;2022-11-11T06:51:24;6.30;99.90
6407;DHT22;3236;51.022;6.818;2022-11-11T06:53:51;6.30;99.90
6407;DHT22;3236;51.022;6.818;2022-11-11T06:56:18;6.80;99.90
6407;DHT22;3236;51.022;6.818;2022-11-11T07:01:13;6.40;99.90
6407;DHT22;3236;51.022;6.818;2022-11-11T07:03:42;6.60;99.90
6407;DHT22;3236;51.022;6.818;2022-11-11T07:06:09;6.70;99.90
6407;DHT22;3236;51.022;6.818;2022-11-11T07:08:36;6.50;99.90
6407;DHT22;3236;51.022;6.818;2022-11-11T07:11:03;6.70;99.90
6407;DHT22;3236;51.022;6.818;2022-11-11T07:13:32;7.00;99.90
6407;DHT22;3236;51.022;6.818;2022-11-11T07:15:59;7.30;99.90
6407;DHT22;3236;51.022;6.818;2022-11-11T07:20:54;6.80;99.90
6407;DHT22;3236;51.022;6.818;2022-11-11T07:23:22;7.30;99.90
6407;DHT22;3236;51.022;6.818;2022-11-11T07:25:49;7.10;99.90
6407;DHT22;3236;51.022;6.818;2022-11-11T07:28:16;7.30;99.90
6407;DHT22;3236;51.022;6.818;2022-11-11T07:30:46;7.50;99.90
6407;DHT22;3236;51.022;6.818;2022-11-11T07:33:13;7.20;99.90
6407;DHT22;3236;51.022;6.818;2022-11-11T07:35:40;7.10;99.90
6407;DHT22;3236;51.022;6.818;2022-11-11T07:38:09;7.30;99.90
6407;DHT22;3236;51.022;6.818;2022-11-11T07:40:36;7.40;99.90
6407;DHT22;3236;51.022;6.818;2022-11-11T07:43:03;7.30;99.90
6407;DHT22;3236;51.022;6.818;2022-11-11T07:45:33;7.50;99.90
6407;DHT22;3236;51.022;6.818;2022-11-11T07:48:00;7.40;99.90
6407;DHT22;3236;51.022;6.818;2022-11-11T07:50:27;7.60;99.90
6407;DHT22;3236;51.022;6.818;2022-11-11T07:52:54;7.40;99.90
6407;DHT22;3236;51.022;6.818;2022-11-11T07:55:23;7.80;99.90
6407;DHT22;3236;51.022;6.818;2022-11-11T07:57:53;7.50;99.90
6407;DHT22;3236;51.022;6.818;2022-11-11T08:00:20;7.50;99.90
6407;DHT22;3236;51.022;6.818;2022-11-11T08:02:48;8.00;99.90
6407;DHT22;3236;51.022;6.818;2022-11-11T08:05:15;7.80;99.90
6407;DHT22;3236;51.022;6.818;2022-11-11T08:07:43;7.80;99.90
6407;DHT22;3236;51.022;6.818;2022-11-11T08:10:10;8.20;99.90
6407;DHT22;3236;51.022;6.818;2022-11-11T08:12:39;7.60;99.90
6407;DHT22;3236;51.022;6.818;2022-11-11T08:15:24;7.60;99.90
6407;DHT22;3236;51.022;6.818;2022-11-11T08:17:51;7.80;99.90
6407;DHT22;3236;51.022;6.818;2022-11-11T08:20:19;8.10;99.90
6407;DHT22;3236;51.022;6.818;2022-11-11T08:22:48;8.10;99.90
6407;DHT22;3236;51.022;6.818;2022-11-11T08:25:20;8.50;99.90
6407;DHT22;3236;51.022;6.818;2022-11-11T08:27:55;8.10;99.90
6407;DHT22;3236;51.022;6.818;2022-11-11T08:30:26;8.60;99.90
6407;DHT22;3236;51.022;6.818;2022-11-11T08:32:56;7.90;99.90
6407;DHT22;3236;51.022;6.818;2022-11-11T08:35:26;8.10;99.90
6407;DHT22;3236;51.022;6.818;2022-11-11T08:42:50;8.70;99.90
6407;DHT22;3236;51.022;6.818;2022-11-11T08:45:17;8.60;99.90
6407;DHT22;3236;51.022;6.818;2022-11-11T08:47:44;9.00;99.90
6407;DHT22;3236;51.022;6.818;2022-11-11T08:50:12;8.50;99.90
6407;DHT22;3236;51.022;6.818;2022-11-11T08:52:44;8.60;99.90
6407;DHT22;3236;51.022;6.818;2022-11-11T08:55:11;8.70;99.90
6407;DHT22;3236;51.022;6.818;2022-11-11T08:57:39;8.90;99.90
6407;DHT22;3236;51.022;6.818;2022-11-11T09:00:12;8.90;99.90
6407;DHT22;3236;51.022;6.818;2022-11-11T09:02:39;8.90;99.90
6407;DHT22;3236;51.022;6.818;2022-11-11T09:05:07;9.00;99.90
6407;DHT22;3236;51.022;6.818;2022-11-11T09:07:34;9.10;99.90
6407;DHT22;3236;51.022;6.818;2022-11-11T09:10:01;8.90;99.90
6407;DHT22;3236;51.022;6.818;2022-11-11T09:14:56;9.70;99.90
6407;DHT22;3236;51.022;6.818;2022-11-11T09:17:27;9.40;99.90
6407;DHT22;3236;51.022;6.818;2022-11-11T09:22:24;9.40;99.90
6407;DHT22;3236;51.022;6.818;2022-11-11T09:24:51;9.30;99.90
6407;DHT22;3236;51.022;6.818;2022-11-11T09:27:19;9.60;99.90
6407;DHT22;3236;51.022;6.818;2022-11-11T09:29:46;9.90;99.90
6407;DHT22;3236;51.022;6.818;2022-11-11T09:32:13;9.70;99.90
6407;DHT22;3236;51.022;6.818;2022-11-11T09:34:41;9.80;99.90
6407;DHT22;3236;51.022;6.818;2022-11-11T09:44:55;10.20;99.90
6407;DHT22;3236;51.022;6.818;2022-11-11T09:47:36;10.40;99.90
6407;DHT22;3236;51.022;6.818;2022-11-11T09:50:12;10.60;99.90
6407;DHT22;3236;51.022;6.818;2022-11-11T09:52:50;10.60;99.90
6407;DHT22;3236;51.022;6.818;2022-11-11T09:55:26;10.60;99.90
6407;DHT22;3236;51.022;6.818;2022-11-11T09:57:57;10.60;99.90
6407;DHT22;3236;51.022;6.818;2022-11-11T10:00:35;10.80;99.90
6407;DHT22;3236;51.022;6.818;2022-11-11T10:03:06;11.00;99.90
6407;DHT22;3236;51.022;6.818;2022-11-11T10:05:42;11.10;99.90
6407;DHT22;3236;51.022;6.818;2022-11-11T10:08:13;11.00;99.90
6407;DHT22;3236;51.022;6.818;2022-11-11T10:10:43;11.20;99.90
6407;DHT22;3236;51.022;6.818;2022-11-11T10:13:13;10.80;99.90
6407;DHT22;3236;51.022;6.818;2022-11-11T10:15:48;11.50;99.90
6407;DHT22;3236;51.022;6.818;2022-11-11T10:18:33;11.60;99.90
6407;DHT22;3236;51.022;6.818;2022-11-11T10:21:13;11.60;99.90
6407;DHT22;3236;51.022;6.818;2022-11-11T10:23:44;11.90;99.90
6407;DHT22;3236;51.022;6.818;2022-11-11T10:26:17;11.20;99.90
6407;DHT22;3236;51.022;6.818;2022-11-11T10:28:49;11.90;99.90
6407;DHT22;3236;51.022;6.818;2022-11-11T10:31:19;11.80;99.90
6407;DHT22;3236;51.022;6.818;2022-11-11T10:33:50;11.60;99.90
6407;DHT22;3236;51.022;6.818;2022-11-11T10:36:21;11.50;99.90
6407;DHT22;3236;51.022;6.818;2022-11-11T10:38:53;12.10;99.90
6407;DHT22;3236;51.022;6.818;2022-11-11T10:41:26;12.00;99.90
6407;DHT22;3236;51.022;6.818;2022-11-11T10:43:56;11.80;99.90
6407;DHT22;3236;51.022;6.818;2022-11-11T10:46:28;11.80;99.90
6407;DHT22;3236;51.022;6.818;2022-11-11T10:49:01;12.00;99.90
6407;DHT22;3236;51.022;6.818;2022-11-11T10:51:33;12.00;99.90
6407;DHT22;3236;51.022;6.818;2022-11-11T10:54:05;12.20;99.90
6407;DHT22;3236;51.022;6.818;2022-11-11T10:56:42;12.70;99.90
6407;DHT22;3236;51.022;6.818;2022-11-11T11:01:48;12.60;99.90
6407;DHT22;3236;51.022;6.818;2022-11-11T11:04:23;12.70;99.90
6407;DHT22;3236;51.022;6.818;2022-11-11T11:06:54;12.80;99.90
6407;DHT22;3236;51.022;6.818;2022-11-11T11:09:25;13.00;99.90
6407;DHT22;3236;51.022;6.818;2022-11-11T11:12:05;13.30;99.90
6407;DHT22;3236;51.022;6.818;2022-11-11T11:14:38;13.90;99.90
6407;DHT22;3236;51.022;6.818;2022-11-11T11:17:14;13.40;99.90
6407;DHT22;3236;51.022;6.818;2022-11-11T11:19:43;14.40;99.90
6407;DHT22;3236;51.022;6.818;2022-11-11T11:22:17;14.00;99.90
6407;DHT22;3236;51.022;6.818;2022-11-11T11:24:44;14.90;99.90
6407;DHT22;3236;51.022;6.818;2022-11-11T11:27:25;14.30;99.90
6407;DHT22;3236;51.022;6.818;2022-11-11T11:29:52;15.00;99.90
6407;DHT22;3236;51.022;6.818;2022-11-11T11:32:28;16.40;99.90
6407;DHT22;3236;51.022;6.818;2022-11-11T11:34:56;15.80;99.90
6407;DHT22;3236;51.022;6.818;2022-11-11T11:37:25;16.20;99.90
6407;DHT22;3236;51.022;6.818;2022-11-11T11:39:58;16.10;99.90
6407;DHT22;3236;51.022;6.818;2022-11-11T11:42:27;16.30;99.90
6407;DHT22;3236;51.022;6.818;2022-11-11T11:44:55;16.10;99.90
6407;DHT22;3236;51.022;6.818;2022-11-11T11:47:35;16.30;99.90
6407;DHT22;3236;51.022;6.818;2022-11-11T11:50:30;16.80;99.90
6407;DHT22;3236;51.022;6.818;2022-11-11T11:53:16;16.80;99.90
6407;DHT22;3236;51.022;6.818;2022-11-11T11:55:48;17.10;99.90
6407;DHT22;3236;51.022;6.818;2022-11-11T11:58:32;17.30;99.90
6407;DHT22;3236;51.022;6.818;2022-11-11T12:01:03;16.60;99.90
6407;DHT22;3236;51.022;6.818;2022-11-11T12:03:57;17.80;99.90
6407;DHT22;3236;51.022;6.818;2022-11-11T12:06:32;17.30;99.90
6407;DHT22;3236;51.022;6.818;2022-11-11T12:09:16;17.90;99.90
6407;DHT22;3236;51.022;6.818;2022-11-11T12:11:57;17.10;99.90
6407;DHT22;3236;51.022;6.818;2022-11-11T12:14:44;17.90;99.90
6407;DHT22;3236;51.022;6.818;2022-11-11T12:17:27;18.40;99.90
6407;DHT22;3236;51.022;6.818;2022-11-11T12:20:03;18.80;99.90
6407;DHT22;3236;51.022;6.818;2022-11-11T12:22:43;18.70;99.90
6407;DHT22;3236;51.022;6.818;2022-11-11T12:25:19;19.00;99.90
6407;DHT22;3236;51.022;6.818;2022-11-11T12:27:58;19.20;99.90
6407;DHT22;3236;51.022;6.818;2022-11-11T12:30:32;18.80;99.90
6407;DHT22;3236;51.022;6.818;2022-11-11T12:33:27;18.80;99.90
6407;DHT22;3236;51.022;6.818;2022-11-11T12:36:07;19.20;99.90
6407;DHT22;3236;51.022;6.818;2022-11-11T12:38:56;18.60;99.90
6407;DHT22;3236;51.022;6.818;2022-11-11T12:41:34;18.60;99.90
6407;DHT22;3236;51.022;6.818;2022-11-11T12:44:07;19.10;99.90
6407;DHT22;3236;51.022;6.818;2022-11-11T12:46:45;18.00;99.90
6407;DHT22;3236;51.022;6.818;2022-11-11T12:49:45;18.90;99.90
6407;DHT22;3236;51.022;6.818;2022-11-11T12:52:29;19.50;99.90
6407;DHT22;3236;51.022;6.818;2022-11-11T12:57:41;19.20;99.90
6407;DHT22;3236;51.022;6.818;2022-11-11T13:00:17;19.60;99.90
6407;DHT22;3236;51.022;6.818;2022-11-11T13:03:01;19.20;99.90
6407;DHT22;3236;51.022;6.818;2022-11-11T13:05:33;18.20;99.90
6407;DHT22;3236;51.022;6.818;2022-11-11T13:11:02;19.80;99.90
6407;DHT22;3236;51.022;6.818;2022-11-11T13:16:24;18.90;99.90
6407;DHT22;3236;51.022;6.818;2022-11-11T13:19:01;19.00;99.90
6407;DHT22;3236;51.022;6.818;2022-11-11T13:21:33;19.40;99.90
6407;DHT22;3236;51.022;6.818;2022-11-11T13:24:10;19.60;99.90
6407;DHT22;3236;51.022;6.818;2022-11-11T13:26:42;18.90;99.90
6407;DHT22;3236;51.022;6.818;2022-11-11T13:29:48;19.20;99.90
6407;DHT22;3236;51.022;6.818;2022-11-11T13:32:21;19.30;99.90
6407;DHT22;3236;51.022;6.818;2022-11-11T13:34:51;19.70;99.90
6407;DHT22;3236;51.022;6.818;2022-11-11T13:37:21;19.50;99.90
6407;DHT22;3236;51.022;6.818;2022-11-11T13:39:51;20.30;99.90
6407;DHT22;3236;51.022;6.818;2022-11-11T13:42:21;20.50;99.90
6407;DHT22;3236;51.022;6.818;2022-11-11T13:44:52;21.00;99.90
6407;DHT22;3236;51.022;6.818;2022-11-11T13:47:26;19.50;96.60
6407;DHT22;3236;51.022;6.818;2022-11-11T13:49:58;21.90;95.60
6407;DHT22;3236;51.022;6.818;2022-11-11T13:52:29;21.50;94.50
6407;DHT22;3236;51.022;6.818;2022-11-11T13:54:58;21.80;92.30
6407;DHT22;3236;51.022;6.818;2022-11-11T13:57:27;22.80;94.50
6407;DHT22;3236;51.022;6.818;2022-11-11T14:00:04;22.10;91.70
6407;DHT22;3236;51.022;6.818;2022-11-11T14:02:32;21.60;93.60
6407;DHT22;3236;51.022;6.818;2022-11-11T14:05:17;22.50;92.30
6407;DHT22;3236;51.022;6.818;2022-11-11T14:07:54;21.70;91.60
6407;DHT22;3236;51.022;6.818;2022-11-11T14:10:54;22.50;93.20
6407;DHT22;3236;51.022;6.818;2022-11-11T14:13:37;23.20;89.70
6407;DHT22;3236;51.022;6.818;2022-11-11T14:16:09;23.40;89.60
6407;DHT22;3236;51.022;6.818;2022-11-11T14:18:42;23.30;90.40
6407;DHT22;3236;51.022;6.818;2022-11-11T14:21:10;23.70;89.40
6407;DHT22;3236;51.022;6.818;2022-11-11T14:23:58;23.80;84.80
6407;DHT22;3236;51.022;6.818;2022-11-11T14:26:27;24.20;83.50
6407;DHT22;3236;51.022;6.818;2022-11-11T14:29:04;24.60;82.90
6407;DHT22;3236;51.022;6.818;2022-11-11T14:31:54;24.90;80.30
6407;DHT22;3236;51.022;6.818;2022-11-11T14:34:37;24.60;77.40
6407;DHT22;3236;51.022;6.818;2022-11-11T14:37:17;24.50;77.40
6407;DHT22;3236;51.022;6.818;2022-11-11T14:39:51;24.40;77.30
6407;DHT22;3236;51.022;6.818;2022-11-11T14:42:46;23.10;80.30
6407;DHT22;3236;51.022;6.818;2022-11-11T14:51:47;19.70;88.10
6407;DHT22;3236;51.022;6.818;2022-11-11T14:54:31;18.30;91.00
6407;DHT22;3236;51.022;6.818;2022-11-11T14:59:34;16.70;99.90
6407;DHT22;3236;51.022;6.818;2022-11-11T15:02:03;16.50;99.90
6407;DHT22;3236;51.022;6.818;2022-11-11T15:04:39;15.80;99.90
6407;DHT22;3236;51.022;6.818;2022-11-11T15:07:21;16.00;99.90
6407;DHT22;3236;51.022;6.818;2022-11-11T15:10:12;15.80;99.90
6407;DHT22;3236;51.022;6.818;2022-11-11T15:13:01;15.40;99.90
6407;DHT22;3236;51.022;6.818;2022-11-11T15:15:37;15.30;99.90
6407;DHT22;3236;51.022;6.818;2022-11-11T15:18:32;14.90;99.90
6407;DHT22;3236;51.022;6.818;2022-11-11T15:21:06;14.20;99.90
6407;DHT22;3236;51.022;6.818;2022-11-11T15:23:43;14.40;99.90
6407;DHT22;3236;51.022;6.818;2022-11-11T15:26:19;14.10;99.90
6407;DHT22;3236;51.022;6.818;2022-11-11T15:29:07;13.70;99.90
6407;DHT22;3236;51.022;6.818;2022-11-11T15:31:41;13.80;99.90
6407;DHT22;3236;51.022;6.818;2022-11-11T15:34:23;13.40;99.90
6407;DHT22;3236;51.022;6.818;2022-11-11T15:36:55;13.30;99.90
6407;DHT22;3236;51.022;6.818;2022-11-11T15:39:30;13.00;99.90
6407;DHT22;3236;51.022;6.818;2022-11-11T15:42:01;12.90;99.90
6407;DHT22;3236;51.022;6.818;2022-11-11T15:44:30;12.80;99.90
6407;DHT22;3236;51.022;6.818;2022-11-11T15:46:59;12.30;99.90
6407;DHT22;3236;51.022;6.818;2022-11-11T15:49:37;12.10;99.90
6407;DHT22;3236;51.022;6.818;2022-11-11T15:54:33;12.00;99.90
6407;DHT22;3236;51.022;6.818;2022-11-11T15:57:21;12.00;99.90
6407;DHT22;3236;51.022;6.818;2022-11-11T15:59:48;11.70;99.90
6407;DHT22;3236;51.022;6.818;2022-11-11T16:02:18;11.40;99.90
6407;DHT22;3236;51.022;6.818;2022-11-11T16:04:50;11.30;99.90
6407;DHT22;3236;51.022;6.818;2022-11-11T16:07:20;11.60;99.90
6407;DHT22;3236;51.022;6.818;2022-11-11T16:12:21;11.40;99.90
6407;DHT22;3236;51.022;6.818;2022-11-11T16:14:51;11.20;99.90
6407;DHT22;3236;51.022;6.818;2022-11-11T16:17:21;11.20;99.90
6407;DHT22;3236;51.022;6.818;2022-11-11T16:19:53;11.40;99.90
6407;DHT22;3236;51.022;6.818;2022-11-11T16:22:23;10.80;99.90
6407;DHT22;3236;51.022;6.818;2022-11-11T16:24:54;10.80;99.90
6407;DHT22;3236;51.022;6.818;2022-11-11T16:27:26;10.70;99.90
6407;DHT22;3236;51.022;6.818;2022-11-11T16:29:54;10.60;99.90
6407;DHT22;3236;51.022;6.818;2022-11-11T16:32:33;10.30;99.90
6407;DHT22;3236;51.022;6.818;2022-11-11T16:35:00;10.20;99.90
6407;DHT22;3236;51.022;6.818;2022-11-11T16:40:26;10.20;99.90
6407;DHT22;3236;51.022;6.818;2022-11-11T16:43:17;10.10;99.90
6407;DHT22;3236;51.022;6.818;2022-11-11T16:48:37;10.30;99.90
6407;DHT22;3236;51.022;6.818;2022-11-11T16:51:08;10.10;99.90
6407;DHT22;3236;51.022;6.818;2022-11-11T16:53:40;10.00;99.90
6407;DHT22;3236;51.022;6.818;2022-11-11T16:56:18;9.80;99.90
6407;DHT22;3236;51.022;6.818;2022-11-11T16:59:00;9.70;99.90
6407;DHT22;3236;51.022;6.818;2022-11-11T17:01:29;9.70;99.90
6407;DHT22;3236;51.022;6.818;2022-11-11T17:03:58;9.50;99.90
6407;DHT22;3236;51.022;6.818;2022-11-11T17:06:50;9.80;99.90
6407;DHT22;3236;51.022;6.818;2022-11-11T17:09:40;9.70;99.90
6407;DHT22;3236;51.022;6.818;2022-11-11T17:12:09;9.40;99.90
6407;DHT22;3236;51.022;6.818;2022-11-11T17:14:38;9.80;99.90
6407;DHT22;3236;51.022;6.818;2022-11-11T17:17:07;9.60;99.90
6407;DHT22;3236;51.022;6.818;2022-11-11T17:19:35;9.10;99.90
6407;DHT22;3236;51.022;6.818;2022-11-11T17:22:10;9.70;99.90
6407;DHT22;3236;51.022;6.818;2022-11-11T17:24:38;9.50;99.90
6407;DHT22;3236;51.022;6.818;2022-11-11T17:27:05;9.20;99.90
6407;DHT22;3236;51.022;6.818;2022-11-11T17:29:34;8.80;99.90
6407;DHT22;3236;51.022;6.818;2022-11-11T17:32:01;9.10;99.90
6407;DHT22;3236;51.022;6.818;2022-11-11T17:34:28;9.10;99.90
6407;DHT22;3236;51.022;6.818;2022-11-11T17:36:55;9.20;99.90
6407;DHT22;3236;51.022;6.818;2022-11-11T17:39:23;9.10;99.90
6407;DHT22;3236;51.022;6.818;2022-11-11T17:41:50;8.80;99.90
6407;DHT22;3236;51.022;6.818;2022-11-11T17:46:46;8.20;99.90
6407;DHT22;3236;51.022;6.818;2022-11-11T17:49:13;8.50;99.90
6407;DHT22;3236;51.022;6.818;2022-11-11T17:51:42;8.20;99.90
6407;DHT22;3236;51.022;6.818;2022-11-11T17:54:09;8.40;99.90
6407;DHT22;3236;51.022;6.818;2022-11-11T17:56:36;8.50;99.90
6407;DHT22;3236;51.022;6.818;2022-11-11T18:01:35;8.70;99.90
6407;DHT22;3236;51.022;6.818;2022-11-11T18:04:04;8.70;99.90
6407;DHT22;3236;51.022;6.818;2022-11-11T18:06:34;8.80;99.90
6407;DHT22;3236;51.022;6.818;2022-11-11T18:09:01;8.60;99.90
6407;DHT22;3236;51.022;6.818;2022-11-11T18:13:57;9.00;99.90
6407;DHT22;3236;51.022;6.818;2022-11-11T18:18:52;8.50;99.90
6407;DHT22;3236;51.022;6.818;2022-11-11T18:21:26;8.30;99.90
6407;DHT22;3236;51.022;6.818;2022-11-11T18:23:53;7.90;99.90
6407;DHT22;3236;51.022;6.818;2022-11-11T18:26:21;8.30;99.90
6407;DHT22;3236;51.022;6.818;2022-11-11T18:28:48;7.80;99.90
6407;DHT22;3236;51.022;6.818;2022-11-11T18:31:15;7.90;99.90
6407;DHT22;3236;51.022;6.818;2022-11-11T18:33:43;8.10;99.90
6407;DHT22;3236;51.022;6.818;2022-11-11T18:36:13;7.80;99.90